Aviation Digital Data Service (ADDS)

Output produced by METARs form (1728 UTC 24 June 2019)
found at http://www.aviationweather.gov/metar/data/
 
METAR text: LBSF 241700Z 12006KT 9999 FEW017 SCT036 BKN069 19/17 Q1020 TEMPO 5000 RA
Conditions at: LBSF (SOFIA , BG) observed 1700 UTC 24 June 2019
Temperature: 19.0°C (66°F)
Dewpoint: 17.0°C (63°F) [RH = 88%]
Pressure (altimeter): 30.12 inches Hg (1020.0 mb)
Winds: from the ESE (120 degrees) at 7 MPH (6 knots; 3.1 m/s)
Visibility: 6 or more miles (10+ km)
Ceiling: 6900 feet AGL
Clouds: few clouds at 1700 feet AGL
scattered clouds at 3600 feet AGL
broken clouds at 6900 feet AGL
Weather: no significant weather observed at this time

METAR text: LBSF 241630Z 11013KT 7000 -RA FEW005 BKN017 OVC023 18/18 Q1020 NOSIG
Conditions at: LBSF (SOFIA , BG) observed 1630 UTC 24 June 2019
Temperature: 18.0°C (64°F)
Dewpoint: 18.0°C (64°F) [RH = 100%]
Pressure (altimeter): 30.12 inches Hg (1020.0 mb)
Winds: from the ESE (110 degrees) at 15 MPH (13 knots; 6.7 m/s)
Visibility: 4 miles ( 7 km)
Ceiling: 1700 feet AGL
Clouds: few clouds at 500 feet AGL
broken clouds at 1700 feet AGL
overcast cloud deck at 2300 feet AGL
Weather: -RA  (light rain)

METAR text: LBSF 241600Z VRB02KT 7000 -SHRA FEW015 FEW030TCU SCT065 18/17 Q1019 NOSIG
Conditions at: LBSF (SOFIA , BG) observed 1600 UTC 24 June 2019
Temperature: 18.0°C (64°F)
Dewpoint: 17.0°C (63°F) [RH = 94%]
Pressure (altimeter): 30.09 inches Hg (1019.0 mb)
Winds: variable direction winds at 2 MPH (2 knots; 1.0 m/s)
Visibility: 4 miles ( 7 km)
Ceiling: at least 12,000 feet AGL
Clouds: few clouds at 1500 feet AGL
few clouds at 3000 feet AGL
scattered clouds at 6500 feet AGL
Weather: -SHRA  (light rain showers)

METAR text: LBSF 241530Z 32003KT 260V360 8000 -SHRA FEW025 FEW030TCU SCT062 18/16 Q1018 TEMPO 5000 SHRA
Conditions at: LBSF (SOFIA , BG) observed 1530 UTC 24 June 2019
Temperature: 18.0°C (64°F)
Dewpoint: 16.0°C (61°F) [RH = 88%]
Pressure (altimeter): 30.06 inches Hg (1018.0 mb)
Winds: from the NW (320 degrees) at 3 MPH (3 knots; 1.5 m/s)
Visibility: 5 miles ( 8 km)
Ceiling: at least 12,000 feet AGL
Clouds: few clouds at 2500 feet AGL
few clouds at 3000 feet AGL
scattered clouds at 6200 feet AGL
Weather: -SHRA  (light rain showers)

METAR text: LBSF 241500Z 18005KT 8000 -SHRA FEW025 FEW030TCU SCT062 18/16 Q1019 RETSRA NOSIG
Conditions at: LBSF (SOFIA , BG) observed 1500 UTC 24 June 2019
Temperature: 18.0°C (64°F)
Dewpoint: 16.0°C (61°F) [RH = 88%]
Pressure (altimeter): 30.09 inches Hg (1019.0 mb)
Winds: from the S (180 degrees) at 6 MPH (5 knots; 2.6 m/s)
Visibility: 5 miles ( 8 km)
Ceiling: at least 12,000 feet AGL
Clouds: few clouds at 2500 feet AGL
few clouds at 3000 feet AGL
scattered clouds at 6200 feet AGL
Weather: -SHRA  (light rain showers)

METAR text: LBSF 241430Z 16012KT 140V200 4000 TSRA SCT018 FEW030CB BKN034 19/16 Q1019 TEMPO 1500 +TSRA
Conditions at: LBSF (SOFIA , BG) observed 1430 UTC 24 June 2019
Temperature: 19.0°C (66°F)
Dewpoint: 16.0°C (61°F) [RH = 83%]
Pressure (altimeter): 30.09 inches Hg (1019.0 mb)
Winds: from the SSE (160 degrees) at 14 MPH (12 knots; 6.2 m/s)
Visibility: 2.49 miles (4.01 km)
Ceiling: 3400 feet AGL
Clouds: scattered clouds at 1800 feet AGL
few clouds at 3000 feet AGL
broken clouds at 3400 feet AGL
Weather: TSRA  (rain associated with thunderstorm(s))

METAR text: LBSF 241400Z 21005KT 170V250 8000 -TSRA FEW022 FEW030CB SCT043 18/15 Q1018 RETSRA TEMPO 5000 TSRA
Conditions at: LBSF (SOFIA , BG) observed 1400 UTC 24 June 2019
Temperature: 18.0°C (64°F)
Dewpoint: 15.0°C (59°F) [RH = 83%]
Pressure (altimeter): 30.06 inches Hg (1018.0 mb)
Winds: from the SSW (210 degrees) at 6 MPH (5 knots; 2.6 m/s)
Visibility: 5 miles ( 8 km)
Ceiling: at least 12,000 feet AGL
Clouds: few clouds at 2200 feet AGL
few clouds at 3000 feet AGL
scattered clouds at 4300 feet AGL
Weather: -TSRA  (light rain associated with thunderstorm(s))

METAR text: LBSF 241330Z 00000KT 9999 -TSRA FEW022 FEW030CB SCT050 17/14 Q1018 TEMPO 5000 TSRA
Conditions at: LBSF (SOFIA , BG) observed 1330 UTC 24 June 2019
Temperature: 17.0°C (63°F)
Dewpoint: 14.0°C (57°F) [RH = 82%]
Pressure (altimeter): 30.06 inches Hg (1018.0 mb)
Winds: calm
Visibility: 6 or more miles (10+ km)
Ceiling: at least 12,000 feet AGL
Clouds: few clouds at 2200 feet AGL
few clouds at 3000 feet AGL
scattered clouds at 5000 feet AGL
Weather: -TSRA  (light rain associated with thunderstorm(s))

METAR text: LBSF 241300Z 34003KT 290V030 8000 -TSRA FEW024 FEW030CB SCT050 17/14 Q1019 RETSRA NOSIG
Conditions at: LBSF (SOFIA , BG) observed 1300 UTC 24 June 2019
Temperature: 17.0°C (63°F)
Dewpoint: 14.0°C (57°F) [RH = 82%]
Pressure (altimeter): 30.09 inches Hg (1019.0 mb)
Winds: from the NNW (340 degrees) at 3 MPH (3 knots; 1.5 m/s)
Visibility: 5 miles ( 8 km)
Ceiling: at least 12,000 feet AGL
Clouds: few clouds at 2400 feet AGL
few clouds at 3000 feet AGL
scattered clouds at 5000 feet AGL
Weather: -TSRA  (light rain associated with thunderstorm(s))

METAR text: LBSF 241230Z 02004KT 310V060 6000 TSRA FEW024 SCT030CB BKN042 18/16 Q1018 TEMPO 3000 TSRA
Conditions at: LBSF (SOFIA , BG) observed 1230 UTC 24 June 2019
Temperature: 18.0°C (64°F)
Dewpoint: 16.0°C (61°F) [RH = 88%]
Pressure (altimeter): 30.06 inches Hg (1018.0 mb)
Winds: from the NNE (20 degrees) at 5 MPH (4 knots; 2.1 m/s)
Visibility: 4 miles ( 6 km)
Ceiling: 4200 feet AGL
Clouds: few clouds at 2400 feet AGL
scattered clouds at 3000 feet AGL
broken clouds at 4200 feet AGL
Weather: TSRA  (rain associated with thunderstorm(s))

METAR text: LBSF 241200Z 29008KT 240V340 5000 TSRA FEW024 SCT030CB OVC042 20/15 Q1018 TEMPO 1500 +TSRA
Conditions at: LBSF (SOFIA , BG) observed 1200 UTC 24 June 2019
Temperature: 20.0°C (68°F)
Dewpoint: 15.0°C (59°F) [RH = 73%]
Pressure (altimeter): 30.06 inches Hg (1018.0 mb)
Winds: from the WNW (290 degrees) at 9 MPH (8 knots; 4.1 m/s)
Visibility: 3 miles ( 5 km)
Ceiling: 4200 feet AGL
Clouds: few clouds at 2400 feet AGL
scattered clouds at 3000 feet AGL
overcast cloud deck at 4200 feet AGL
Weather: TSRA  (rain associated with thunderstorm(s))

METAR text: LBSF 241130Z 12007KT 060V190 9999 -TSRA FEW026 FEW030CB OVC032 22/19 Q1017 TEMPO 4000 TSRA SCT030CB
Conditions at: LBSF (SOFIA , BG) observed 1130 UTC 24 June 2019
Temperature: 22.0°C (72°F)
Dewpoint: 19.0°C (66°F) [RH = 83%]
Pressure (altimeter): 30.03 inches Hg (1017.0 mb)
Winds: from the ESE (120 degrees) at 8 MPH (7 knots; 3.6 m/s)
Visibility: 6 or more miles (10+ km)
Ceiling: 3200 feet AGL
Clouds: few clouds at 2600 feet AGL
few clouds at 3000 feet AGL
overcast cloud deck at 3200 feet AGL
Weather: -TSRA  (light rain associated with thunderstorm(s))

METAR text: LBSF 241100Z 08004KT 340V120 9999 TS VCSH FEW030CB BKN032 24/18 Q1017 TEMPO 4000 TSRA SCT030CB
Conditions at: LBSF (SOFIA , BG) observed 1100 UTC 24 June 2019
Temperature: 24.0°C (75°F)
Dewpoint: 18.0°C (64°F) [RH = 69%]
Pressure (altimeter): 30.03 inches Hg (1017.0 mb)
Winds: from the E (80 degrees) at 5 MPH (4 knots; 2.1 m/s)
Visibility: 6 or more miles (10+ km)
Ceiling: 3200 feet AGL
Clouds: few clouds at 3000 feet AGL
broken clouds at 3200 feet AGL
Weather: TS VCSH  (thunderstorm, showers in vicinity)

METAR text: LBSF 241030Z 06005KT 020V090 9999 VCTS FEW030CB BKN032 24/18 Q1017 TEMPO 4000 TSRA SCT030CB
Conditions at: LBSF (SOFIA , BG) observed 1030 UTC 24 June 2019
Temperature: 24.0°C (75°F)
Dewpoint: 18.0°C (64°F) [RH = 69%]
Pressure (altimeter): 30.03 inches Hg (1017.0 mb)
Winds: from the ENE (60 degrees) at 6 MPH (5 knots; 2.6 m/s)
Visibility: 6 or more miles (10+ km)
Ceiling: 3200 feet AGL
Clouds: few clouds at 3000 feet AGL
broken clouds at 3200 feet AGL
Weather: VCTS  (thunderstorm in vicinity)

METAR text: LBSF 241000Z 10007KT 060V130 9999 FEW030TCU SCT032 BKN041 24/18 Q1017 TEMPO TS FEW030CB
Conditions at: LBSF (SOFIA , BG) observed 1000 UTC 24 June 2019
Temperature: 24.0°C (75°F)
Dewpoint: 18.0°C (64°F) [RH = 69%]
Pressure (altimeter): 30.03 inches Hg (1017.0 mb)
Winds: from the E (100 degrees) at 8 MPH (7 knots; 3.6 m/s)
Visibility: 6 or more miles (10+ km)
Ceiling: 4100 feet AGL
Clouds: few clouds at 3000 feet AGL
scattered clouds at 3200 feet AGL
broken clouds at 4100 feet AGL
Weather: no significant weather observed at this time

METAR text: LBSF 240930Z 08008KT 050V110 9999 SCT028 BKN036 25/18 Q1017 NOSIG
Conditions at: LBSF (SOFIA , BG) observed 0930 UTC 24 June 2019
Temperature: 25.0°C (77°F)
Dewpoint: 18.0°C (64°F) [RH = 65%]
Pressure (altimeter): 30.03 inches Hg (1017.0 mb)
Winds: from the E (80 degrees) at 9 MPH (8 knots; 4.1 m/s)
Visibility: 6 or more miles (10+ km)
Ceiling: 3600 feet AGL
Clouds: scattered clouds at 2800 feet AGL
broken clouds at 3600 feet AGL
Weather: no significant weather observed at this time

METAR text: LBSF 240900Z 08007KT 030V140 9999 FEW028 SCT034 BKN053 24/17 Q1017 NOSIG
Conditions at: LBSF (SOFIA , BG) observed 0900 UTC 24 June 2019
Temperature: 24.0°C (75°F)
Dewpoint: 17.0°C (63°F) [RH = 65%]
Pressure (altimeter): 30.03 inches Hg (1017.0 mb)
Winds: from the E (80 degrees) at 8 MPH (7 knots; 3.6 m/s)
Visibility: 6 or more miles (10+ km)
Ceiling: 5300 feet AGL
Clouds: few clouds at 2800 feet AGL
scattered clouds at 3400 feet AGL
broken clouds at 5300 feet AGL
Weather: no significant weather observed at this time

METAR text: LBSF 240830Z 09004KT 020V150 9999 SCT031 BKN050 23/18 Q1017 NOSIG
Conditions at: LBSF (SOFIA , BG) observed 0830 UTC 24 June 2019
Temperature: 23.0°C (73°F)
Dewpoint: 18.0°C (64°F) [RH = 73%]
Pressure (altimeter): 30.03 inches Hg (1017.0 mb)
Winds: from the E (90 degrees) at 5 MPH (4 knots; 2.1 m/s)
Visibility: 6 or more miles (10+ km)
Ceiling: 5000 feet AGL
Clouds: scattered clouds at 3100 feet AGL
broken clouds at 5000 feet AGL
Weather: no significant weather observed at this time

METAR text: LBSF 240800Z VRB02KT 9999 FEW019 SCT030 23/17 Q1017 NOSIG
Conditions at: LBSF (SOFIA , BG) observed 0800 UTC 24 June 2019
Temperature: 23.0°C (73°F)
Dewpoint: 17.0°C (63°F) [RH = 69%]
Pressure (altimeter): 30.03 inches Hg (1017.0 mb)
Winds: variable direction winds at 2 MPH (2 knots; 1.0 m/s)
Visibility: 6 or more miles (10+ km)
Ceiling: at least 12,000 feet AGL
Clouds: few clouds at 1900 feet AGL
scattered clouds at 3000 feet AGL
Weather: no significant weather observed at this time

METAR text: LBSF 240730Z VRB02KT 9999 FEW016 BKN031 22/17 Q1017 NOSIG
Conditions at: LBSF (SOFIA , BG) observed 0730 UTC 24 June 2019
Temperature: 22.0°C (72°F)
Dewpoint: 17.0°C (63°F) [RH = 73%]
Pressure (altimeter): 30.03 inches Hg (1017.0 mb)
Winds: variable direction winds at 2 MPH (2 knots; 1.0 m/s)
Visibility: 6 or more miles (10+ km)
Ceiling: 3100 feet AGL
Clouds: few clouds at 1600 feet AGL
broken clouds at 3100 feet AGL
Weather: no significant weather observed at this time

METAR text: LBSF 240700Z VRB02KT 9999 FEW009 SCT014 21/18 Q1017 NOSIG
Conditions at: LBSF (SOFIA , BG) observed 0700 UTC 24 June 2019
Temperature: 21.0°C (70°F)
Dewpoint: 18.0°C (64°F) [RH = 83%]
Pressure (altimeter): 30.03 inches Hg (1017.0 mb)
Winds: variable direction winds at 2 MPH (2 knots; 1.0 m/s)
Visibility: 6 or more miles (10+ km)
Ceiling: at least 12,000 feet AGL
Clouds: few clouds at 900 feet AGL
scattered clouds at 1400 feet AGL
Weather: no significant weather observed at this time

METAR text: LBSF 240630Z VRB02KT 9999 FEW008 SCT013 20/18 Q1017 NOSIG
Conditions at: LBSF (SOFIA , BG) observed 0630 UTC 24 June 2019
Temperature: 20.0°C (68°F)
Dewpoint: 18.0°C (64°F) [RH = 88%]
Pressure (altimeter): 30.03 inches Hg (1017.0 mb)
Winds: variable direction winds at 2 MPH (2 knots; 1.0 m/s)
Visibility: 6 or more miles (10+ km)
Ceiling: at least 12,000 feet AGL
Clouds: few clouds at 800 feet AGL
scattered clouds at 1300 feet AGL
Weather: no significant weather observed at this time

METAR text: LBSF 240600Z 00000KT 8000 SCT013 BKN016 19/17 Q1017 NOSIG
Conditions at: LBSF (SOFIA , BG) observed 0600 UTC 24 June 2019
Temperature: 19.0°C (66°F)
Dewpoint: 17.0°C (63°F) [RH = 88%]
Pressure (altimeter): 30.03 inches Hg (1017.0 mb)
Winds: calm
Visibility: 5 miles ( 8 km)
Ceiling: 1600 feet AGL
Clouds: scattered clouds at 1300 feet AGL
broken clouds at 1600 feet AGL
Weather: no significant weather observed at this time

METAR text: LBSF 240530Z VRB01KT 8000 BKN011 18/17 Q1017 NOSIG
Conditions at: LBSF (SOFIA , BG) observed 0530 UTC 24 June 2019
Temperature: 18.0°C (64°F)
Dewpoint: 17.0°C (63°F) [RH = 94%]
Pressure (altimeter): 30.03 inches Hg (1017.0 mb)
Winds: variable direction winds at 1 MPH (1 knots; 0.5 m/s)
Visibility: 5 miles ( 8 km)
Ceiling: 1100 feet AGL
Clouds: broken clouds at 1100 feet AGL
Weather: no significant weather observed at this time

METAR text: LBSF 240500Z 00000KT 8000 SCT009 BKN011 18/17 Q1017 NOSIG
Conditions at: LBSF (SOFIA , BG) observed 0500 UTC 24 June 2019
Temperature: 18.0°C (64°F)
Dewpoint: 17.0°C (63°F) [RH = 94%]
Pressure (altimeter): 30.03 inches Hg (1017.0 mb)
Winds: calm
Visibility: 5 miles ( 8 km)
Ceiling: 1100 feet AGL
Clouds: scattered clouds at 900 feet AGL
broken clouds at 1100 feet AGL
Weather: no significant weather observed at this time

METAR text: LBSF 240430Z 00000KT 7000 SCT008 BKN012 18/17 Q1017 TEMPO 3000 BR SCT005
Conditions at: LBSF (SOFIA , BG) observed 0430 UTC 24 June 2019
Temperature: 18.0°C (64°F)
Dewpoint: 17.0°C (63°F) [RH = 94%]
Pressure (altimeter): 30.03 inches Hg (1017.0 mb)
Winds: calm
Visibility: 4 miles ( 7 km)
Ceiling: 1200 feet AGL
Clouds: scattered clouds at 800 feet AGL
broken clouds at 1200 feet AGL
Weather: no significant weather observed at this time

METAR text: LBSF 240400Z 07001KT 7000 FEW010 SCT012 BKN020 17/17 Q1016 TEMPO 3000 BR SCT005
Conditions at: LBSF (SOFIA , BG) observed 0400 UTC 24 June 2019
Temperature: 17.0°C (63°F)
Dewpoint: 17.0°C (63°F) [RH = 100%]
Pressure (altimeter): 30.00 inches Hg (1016.0 mb)
Winds: from the ENE (70 degrees) at 1 MPH (1 knots; 0.5 m/s)
Visibility: 4 miles ( 7 km)
Ceiling: 2000 feet AGL
Clouds: few clouds at 1000 feet AGL
scattered clouds at 1200 feet AGL
broken clouds at 2000 feet AGL
Weather: no significant weather observed at this time

METAR text: LBSF 240330Z VRB02KT 8000 FEW016 17/16 Q1016 TEMPO 3000 BR SCT010
Conditions at: LBSF (SOFIA , BG) observed 0330 UTC 24 June 2019
Temperature: 17.0°C (63°F)
Dewpoint: 16.0°C (61°F) [RH = 94%]
Pressure (altimeter): 30.00 inches Hg (1016.0 mb)
Winds: variable direction winds at 2 MPH (2 knots; 1.0 m/s)
Visibility: 5 miles ( 8 km)
Ceiling: at least 12,000 feet AGL
Clouds: few clouds at 1600 feet AGL
Weather: no significant weather observed at this time

METAR text: LBSF 240300Z 36002KT 9999 FEW009 18/17 Q1016 NOSIG
Conditions at: LBSF (SOFIA , BG) observed 0300 UTC 24 June 2019
Temperature: 18.0°C (64°F)
Dewpoint: 17.0°C (63°F) [RH = 94%]
Pressure (altimeter): 30.00 inches Hg (1016.0 mb)
Winds: from the N (360 degrees) at 2 MPH (2 knots; 1.0 m/s)
Visibility: 6 or more miles (10+ km)
Ceiling: at least 12,000 feet AGL
Clouds: few clouds at 900 feet AGL
Weather: no significant weather observed at this time

METAR text: LBSF 240230Z 20006KT 9999 FEW060 18/17 Q1016 NOSIG
Conditions at: LBSF (SOFIA , BG) observed 0230 UTC 24 June 2019
Temperature: 18.0°C (64°F)
Dewpoint: 17.0°C (63°F) [RH = 94%]
Pressure (altimeter): 30.00 inches Hg (1016.0 mb)
Winds: from the SSW (200 degrees) at 7 MPH (6 knots; 3.1 m/s)
Visibility: 6 or more miles (10+ km)
Ceiling: at least 12,000 feet AGL
Clouds: few clouds at 6000 feet AGL
Weather: no significant weather observed at this time

METAR text: LBSF 240200Z VRB02KT 9999 SCT065 18/17 Q1016 NOSIG
Conditions at: LBSF (SOFIA , BG) observed 0200 UTC 24 June 2019
Temperature: 18.0°C (64°F)
Dewpoint: 17.0°C (63°F) [RH = 94%]
Pressure (altimeter): 30.00 inches Hg (1016.0 mb)
Winds: variable direction winds at 2 MPH (2 knots; 1.0 m/s)
Visibility: 6 or more miles (10+ km)
Ceiling: at least 12,000 feet AGL
Clouds: scattered clouds at 6500 feet AGL
Weather: no significant weather observed at this time

METAR text: LBSF 240130Z 06003KT 030V100 9999 FEW060 18/16 Q1016 RETS NOSIG
Conditions at: LBSF (SOFIA , BG) observed 0130 UTC 24 June 2019
Temperature: 18.0°C (64°F)
Dewpoint: 16.0°C (61°F) [RH = 88%]
Pressure (altimeter): 30.00 inches Hg (1016.0 mb)
Winds: from the ENE (60 degrees) at 3 MPH (3 knots; 1.5 m/s)
Visibility: 6 or more miles (10+ km)
Ceiling: at least 12,000 feet AGL
Clouds: few clouds at 6000 feet AGL
Weather: no significant weather observed at this time

METAR text: LBSF 240100Z VRB02KT 9999 VCTS FEW040CB OVC060 18/17 Q1016 NOSIG
Conditions at: LBSF (SOFIA , BG) observed 0100 UTC 24 June 2019
Temperature: 18.0°C (64°F)
Dewpoint: 17.0°C (63°F) [RH = 94%]
Pressure (altimeter): 30.00 inches Hg (1016.0 mb)
Winds: variable direction winds at 2 MPH (2 knots; 1.0 m/s)
Visibility: 6 or more miles (10+ km)
Ceiling: 6000 feet AGL
Clouds: few clouds at 4000 feet AGL
overcast cloud deck at 6000 feet AGL
Weather: VCTS  (thunderstorm in vicinity)

METAR text: LBSF 240030Z VRB03KT 9999 TS FEW040CB OVC060 19/16 Q1016 NOSIG
Conditions at: LBSF (SOFIA , BG) observed 0030 UTC 24 June 2019
Temperature: 19.0°C (66°F)
Dewpoint: 16.0°C (61°F) [RH = 83%]
Pressure (altimeter): 30.00 inches Hg (1016.0 mb)
Winds: variable direction winds at 3 MPH (3 knots; 1.5 m/s)
Visibility: 6 or more miles (10+ km)
Ceiling: 6000 feet AGL
Clouds: few clouds at 4000 feet AGL
overcast cloud deck at 6000 feet AGL
Weather: TS  (thunderstorm)

METAR text: LBSF 240000Z 07005KT 9999 -TSRA FEW040CB OVC055 18/16 Q1016 NOSIG
Conditions at: LBSF (SOFIA , BG) observed 0000 UTC 24 June 2019
Temperature: 18.0°C (64°F)
Dewpoint: 16.0°C (61°F) [RH = 88%]
Pressure (altimeter): 30.00 inches Hg (1016.0 mb)
Winds: from the ENE (70 degrees) at 6 MPH (5 knots; 2.6 m/s)
Visibility: 6 or more miles (10+ km)
Ceiling: 5500 feet AGL
Clouds: few clouds at 4000 feet AGL
overcast cloud deck at 5500 feet AGL
Weather: -TSRA  (light rain associated with thunderstorm(s))

METAR text: LBSF 232330Z 02004KT 340V050 9999 -TSRA FEW033CB OVC050 18/16 Q1016 RESHRA NOSIG
Conditions at: LBSF (SOFIA , BG) observed 2330 UTC 23 June 2019
Temperature: 18.0°C (64°F)
Dewpoint: 16.0°C (61°F) [RH = 88%]
Pressure (altimeter): 30.00 inches Hg (1016.0 mb)
Winds: from the NNE (20 degrees) at 5 MPH (4 knots; 2.1 m/s)
Visibility: 6 or more miles (10+ km)
Ceiling: 5000 feet AGL
Clouds: few clouds at 3300 feet AGL
overcast cloud deck at 5000 feet AGL
Weather: -TSRA  (light rain associated with thunderstorm(s))

METAR text: LBSF 232300Z 29007KT 250V010 8000 TSRA FEW026 SCT033CB OVC050 18/16 Q1016 RESHRA TEMPO 2000 TSRA
Conditions at: LBSF (SOFIA , BG) observed 2300 UTC 23 June 2019
Temperature: 18.0°C (64°F)
Dewpoint: 16.0°C (61°F) [RH = 88%]
Pressure (altimeter): 30.00 inches Hg (1016.0 mb)
Winds: from the WNW (290 degrees) at 8 MPH (7 knots; 3.6 m/s)
Visibility: 5 miles ( 8 km)
Ceiling: 5000 feet AGL
Clouds: few clouds at 2600 feet AGL
scattered clouds at 3300 feet AGL
overcast cloud deck at 5000 feet AGL
Weather: TSRA  (rain associated with thunderstorm(s))

METAR text: LBSF 232230Z 31018G29KT 270V340 5000 +TSRA SQ FEW015 BKN033CB OVC050 18/15 Q1016 TEMPO 1500 +TSRA
Conditions at: LBSF (SOFIA , BG) observed 2230 UTC 23 June 2019
Temperature: 18.0°C (64°F)
Dewpoint: 15.0°C (59°F) [RH = 83%]
Pressure (altimeter): 30.00 inches Hg (1016.0 mb)
Winds: from the NW (310 degrees) at 21 MPH (18 knots; 9.3 m/s)
gusting to 33 MPH (29 knots; 14.9 m/s)
Visibility: 3 miles ( 5 km)
Ceiling: 3300 feet AGL
Clouds: few clouds at 1500 feet AGL
broken clouds at 3300 feet AGL
overcast cloud deck at 5000 feet AGL
Weather: +TSRA SQ  (heavy rain associated with thunderstorm(s), squal)

METAR text: LBSF 232200Z 26004KT 180V310 9999 TS SCT040CB BKN059 22/16 Q1015 TEMPO 5000 TSRA
Conditions at: LBSF (SOFIA , BG) observed 2200 UTC 23 June 2019
Temperature: 22.0°C (72°F)
Dewpoint: 16.0°C (61°F) [RH = 69%]
Pressure (altimeter): 29.97 inches Hg (1015.0 mb)
Winds: from the W (260 degrees) at 5 MPH (4 knots; 2.1 m/s)
Visibility: 6 or more miles (10+ km)
Ceiling: 5900 feet AGL
Clouds: scattered clouds at 4000 feet AGL
broken clouds at 5900 feet AGL
Weather: TS  (thunderstorm)

METAR text: LBSF 232130Z 13006KT 9999 TS SCT040CB BKN057 21/16 Q1015 TEMPO 5000 TSRA
Conditions at: LBSF (SOFIA , BG) observed 2130 UTC 23 June 2019
Temperature: 21.0°C (70°F)
Dewpoint: 16.0°C (61°F) [RH = 73%]
Pressure (altimeter): 29.97 inches Hg (1015.0 mb)
Winds: from the SE (130 degrees) at 7 MPH (6 knots; 3.1 m/s)
Visibility: 6 or more miles (10+ km)
Ceiling: 5700 feet AGL
Clouds: scattered clouds at 4000 feet AGL
broken clouds at 5700 feet AGL
Weather: TS  (thunderstorm)

METAR text: LBSF 232100Z 11009KT 9999 FEW040CB SCT057 21/16 Q1015 BECMG 27014KT
Conditions at: LBSF (SOFIA , BG) observed 2100 UTC 23 June 2019
Temperature: 21.0°C (70°F)
Dewpoint: 16.0°C (61°F) [RH = 73%]
Pressure (altimeter): 29.97 inches Hg (1015.0 mb)
Winds: from the ESE (110 degrees) at 10 MPH (9 knots; 4.6 m/s)
Visibility: 6 or more miles (10+ km)
Ceiling: at least 12,000 feet AGL
Clouds: few clouds at 4000 feet AGL
scattered clouds at 5700 feet AGL
Weather: no significant weather observed at this time

METAR text: LBSF 232030Z 00000KT 9999 FEW069 22/16 Q1015 BECMG 27014KT
Conditions at: LBSF (SOFIA , BG) observed 2030 UTC 23 June 2019
Temperature: 22.0°C (72°F)
Dewpoint: 16.0°C (61°F) [RH = 69%]
Pressure (altimeter): 29.97 inches Hg (1015.0 mb)
Winds: calm
Visibility: 6 or more miles (10+ km)
Ceiling: at least 12,000 feet AGL
Clouds: few clouds at 6900 feet AGL
Weather: no significant weather observed at this time

METAR text: LBSF 232000Z 11004KT 080V140 9999 FEW040CB BKN060 22/16 Q1014 TEMPO TS
Conditions at: LBSF (SOFIA , BG) observed 2000 UTC 23 June 2019
Temperature: 22.0°C (72°F)
Dewpoint: 16.0°C (61°F) [RH = 69%]
Pressure (altimeter): 29.94 inches Hg (1014.0 mb)
Winds: from the ESE (110 degrees) at 5 MPH (4 knots; 2.1 m/s)
Visibility: 6 or more miles (10+ km)
Ceiling: 6000 feet AGL
Clouds: few clouds at 4000 feet AGL
broken clouds at 6000 feet AGL
Weather: no significant weather observed at this time

METAR text: LBSF 231930Z 10005KT 9999 VCTS FEW040CB BKN060 21/17 Q1014 TEMPO TS
Conditions at: LBSF (SOFIA , BG) observed 1930 UTC 23 June 2019
Temperature: 21.0°C (70°F)
Dewpoint: 17.0°C (63°F) [RH = 78%]
Pressure (altimeter): 29.94 inches Hg (1014.0 mb)
Winds: from the E (100 degrees) at 6 MPH (5 knots; 2.6 m/s)
Visibility: 6 or more miles (10+ km)
Ceiling: 6000 feet AGL
Clouds: few clouds at 4000 feet AGL
broken clouds at 6000 feet AGL
Weather: VCTS  (thunderstorm in vicinity)

METAR text: LBSF 231900Z 12008KT 9999 VCTS FEW040CB BKN060 23/17 Q1014 TEMPO TS
Conditions at: LBSF (SOFIA , BG) observed 1900 UTC 23 June 2019
Temperature: 23.0°C (73°F)
Dewpoint: 17.0°C (63°F) [RH = 69%]
Pressure (altimeter): 29.94 inches Hg (1014.0 mb)
Winds: from the ESE (120 degrees) at 9 MPH (8 knots; 4.1 m/s)
Visibility: 6 or more miles (10+ km)
Ceiling: 6000 feet AGL
Clouds: few clouds at 4000 feet AGL
broken clouds at 6000 feet AGL
Weather: VCTS  (thunderstorm in vicinity)

METAR text: LBSF 231830Z 11009KT 9999 FEW040CB BKN060 23/17 Q1014 TEMPO TS
Conditions at: LBSF (SOFIA , BG) observed 1830 UTC 23 June 2019
Temperature: 23.0°C (73°F)
Dewpoint: 17.0°C (63°F) [RH = 69%]
Pressure (altimeter): 29.94 inches Hg (1014.0 mb)
Winds: from the ESE (110 degrees) at 10 MPH (9 knots; 4.6 m/s)
Visibility: 6 or more miles (10+ km)
Ceiling: 6000 feet AGL
Clouds: few clouds at 4000 feet AGL
broken clouds at 6000 feet AGL
Weather: no significant weather observed at this time

METAR text: LBSF 231800Z 09008KT 9999 FEW040CB BKN060 24/17 Q1014 RETS NOSIG
Conditions at: LBSF (SOFIA , BG) observed 1800 UTC 23 June 2019
Temperature: 24.0°C (75°F)
Dewpoint: 17.0°C (63°F) [RH = 65%]
Pressure (altimeter): 29.94 inches Hg (1014.0 mb)
Winds: from the E (90 degrees) at 9 MPH (8 knots; 4.1 m/s)
Visibility: 6 or more miles (10+ km)
Ceiling: 6000 feet AGL
Clouds: few clouds at 4000 feet AGL
broken clouds at 6000 feet AGL
Weather: no significant weather observed at this time

METAR text: LBSF 231730Z 07008KT 9999 TS FEW040CB BKN060 25/17 Q1014 NOSIG
Conditions at: LBSF (SOFIA , BG) observed 1730 UTC 23 June 2019
Temperature: 25.0°C (77°F)
Dewpoint: 17.0°C (63°F) [RH = 61%]
Pressure (altimeter): 29.94 inches Hg (1014.0 mb)
Winds: from the ENE (70 degrees) at 9 MPH (8 knots; 4.1 m/s)
Visibility: 6 or more miles (10+ km)
Ceiling: 6000 feet AGL
Clouds: few clouds at 4000 feet AGL
broken clouds at 6000 feet AGL
Weather: TS  (thunderstorm)

METAR text: LBSF 231700Z 08011KT 9999 TS FEW040CB BKN060 26/17 Q1014 NOSIG
Conditions at: LBSF (SOFIA , BG) observed 1700 UTC 23 June 2019
Temperature: 26.0°C (79°F)
Dewpoint: 17.0°C (63°F) [RH = 58%]
Pressure (altimeter): 29.94 inches Hg (1014.0 mb)
Winds: from the E (80 degrees) at 13 MPH (11 knots; 5.7 m/s)
Visibility: 6 or more miles (10+ km)
Ceiling: 6000 feet AGL
Clouds: few clouds at 4000 feet AGL
broken clouds at 6000 feet AGL
Weather: TS  (thunderstorm)

METAR text: LBSF 231630Z 09010KT 9999 TS VCSH SCT040CB BKN060 27/17 Q1014 NOSIG
Conditions at: LBSF (SOFIA , BG) observed 1630 UTC 23 June 2019
Temperature: 27.0°C (81°F)
Dewpoint: 17.0°C (63°F) [RH = 54%]
Pressure (altimeter): 29.94 inches Hg (1014.0 mb)
Winds: from the E (90 degrees) at 12 MPH (10 knots; 5.1 m/s)
Visibility: 6 or more miles (10+ km)
Ceiling: 6000 feet AGL
Clouds: scattered clouds at 4000 feet AGL
broken clouds at 6000 feet AGL
Weather: TS VCSH  (thunderstorm, showers in vicinity)

METAR text: LBSF 231600Z 11012KT 9999 TS FEW040CB SCT060 27/17 Q1014 TEMPO 5000 TSRA
Conditions at: LBSF (SOFIA , BG) observed 1600 UTC 23 June 2019
Temperature: 27.0°C (81°F)
Dewpoint: 17.0°C (63°F) [RH = 54%]
Pressure (altimeter): 29.94 inches Hg (1014.0 mb)
Winds: from the ESE (110 degrees) at 14 MPH (12 knots; 6.2 m/s)
Visibility: 6 or more miles (10+ km)
Ceiling: at least 12,000 feet AGL
Clouds: few clouds at 4000 feet AGL
scattered clouds at 6000 feet AGL
Weather: TS  (thunderstorm)

METAR text: LBSF 231530Z 10011KT 9999 FEW060 28/18 Q1014 NOSIG
Conditions at: LBSF (SOFIA , BG) observed 1530 UTC 23 June 2019
Temperature: 28.0°C (82°F)
Dewpoint: 18.0°C (64°F) [RH = 55%]
Pressure (altimeter): 29.94 inches Hg (1014.0 mb)
Winds: from the E (100 degrees) at 13 MPH (11 knots; 5.7 m/s)
Visibility: 6 or more miles (10+ km)
Ceiling: at least 12,000 feet AGL
Clouds: few clouds at 6000 feet AGL
Weather: no significant weather observed at this time

METAR text: LBSF 231500Z 14010KT 9999 SCT060 28/18 Q1014 NOSIG
Conditions at: LBSF (SOFIA , BG) observed 1500 UTC 23 June 2019
Temperature: 28.0°C (82°F)
Dewpoint: 18.0°C (64°F) [RH = 55%]
Pressure (altimeter): 29.94 inches Hg (1014.0 mb)
Winds: from the SE (140 degrees) at 12 MPH (10 knots; 5.1 m/s)
Visibility: 6 or more miles (10+ km)
Ceiling: at least 12,000 feet AGL
Clouds: scattered clouds at 6000 feet AGL
Weather: no significant weather observed at this time

METAR text: LBSF 231430Z 11010KT 9999 SCT065 28/17 Q1014 TEMPO TS FEW030CB BKN040
Conditions at: LBSF (SOFIA , BG) observed 1430 UTC 23 June 2019
Temperature: 28.0°C (82°F)
Dewpoint: 17.0°C (63°F) [RH = 51%]
Pressure (altimeter): 29.94 inches Hg (1014.0 mb)
Winds: from the ESE (110 degrees) at 12 MPH (10 knots; 5.1 m/s)
Visibility: 6 or more miles (10+ km)
Ceiling: at least 12,000 feet AGL
Clouds: scattered clouds at 6500 feet AGL
Weather: no significant weather observed at this time

METAR text: LBSF 231400Z 11013KT 9999 SCT069 29/16 Q1014 TEMPO TS FEW030CB BKN040
Conditions at: LBSF (SOFIA , BG) observed 1400 UTC 23 June 2019
Temperature: 29.0°C (84°F)
Dewpoint: 16.0°C (61°F) [RH = 45%]
Pressure (altimeter): 29.94 inches Hg (1014.0 mb)
Winds: from the ESE (110 degrees) at 15 MPH (13 knots; 6.7 m/s)
Visibility: 6 or more miles (10+ km)
Ceiling: at least 12,000 feet AGL
Clouds: scattered clouds at 6900 feet AGL
Weather: no significant weather observed at this time

METAR text: LBSF 231330Z 12013KT 9999 SCT069 30/17 Q1015 NOSIG
Conditions at: LBSF (SOFIA , BG) observed 1330 UTC 23 June 2019
Temperature: 30.0°C (86°F)
Dewpoint: 17.0°C (63°F) [RH = 46%]
Pressure (altimeter): 29.97 inches Hg (1015.0 mb)
Winds: from the ESE (120 degrees) at 15 MPH (13 knots; 6.7 m/s)
Visibility: 6 or more miles (10+ km)
Ceiling: at least 12,000 feet AGL
Clouds: scattered clouds at 6900 feet AGL
Weather: no significant weather observed at this time

METAR text: LBSF 231300Z 12012KT 9999 SCT069 30/16 Q1015 NOSIG
Conditions at: LBSF (SOFIA , BG) observed 1300 UTC 23 June 2019
Temperature: 30.0°C (86°F)
Dewpoint: 16.0°C (61°F) [RH = 43%]
Pressure (altimeter): 29.97 inches Hg (1015.0 mb)
Winds: from the ESE (120 degrees) at 14 MPH (12 knots; 6.2 m/s)
Visibility: 6 or more miles (10+ km)
Ceiling: at least 12,000 feet AGL
Clouds: scattered clouds at 6900 feet AGL
Weather: no significant weather observed at this time

METAR text: LBSF 231230Z 09008KT 9999 SCT069 30/16 Q1015 NOSIG
Conditions at: LBSF (SOFIA , BG) observed 1230 UTC 23 June 2019
Temperature: 30.0°C (86°F)
Dewpoint: 16.0°C (61°F) [RH = 43%]
Pressure (altimeter): 29.97 inches Hg (1015.0 mb)
Winds: from the E (90 degrees) at 9 MPH (8 knots; 4.1 m/s)
Visibility: 6 or more miles (10+ km)
Ceiling: at least 12,000 feet AGL
Clouds: scattered clouds at 6900 feet AGL
Weather: no significant weather observed at this time

METAR text: LBSF 231200Z 10006KT 040V170 9999 SCT069 29/17 Q1016 NOSIG
Conditions at: LBSF (SOFIA , BG) observed 1200 UTC 23 June 2019
Temperature: 29.0°C (84°F)
Dewpoint: 17.0°C (63°F) [RH = 48%]
Pressure (altimeter): 30.00 inches Hg (1016.0 mb)
Winds: from the E (100 degrees) at 7 MPH (6 knots; 3.1 m/s)
Visibility: 6 or more miles (10+ km)
Ceiling: at least 12,000 feet AGL
Clouds: scattered clouds at 6900 feet AGL
Weather: no significant weather observed at this time

METAR text: LBSF 231130Z 08007KT 050V130 9999 FEW069 30/16 Q1016 NOSIG
Conditions at: LBSF (SOFIA , BG) observed 1130 UTC 23 June 2019
Temperature: 30.0°C (86°F)
Dewpoint: 16.0°C (61°F) [RH = 43%]
Pressure (altimeter): 30.00 inches Hg (1016.0 mb)
Winds: from the E (80 degrees) at 8 MPH (7 knots; 3.6 m/s)
Visibility: 6 or more miles (10+ km)
Ceiling: at least 12,000 feet AGL
Clouds: few clouds at 6900 feet AGL
Weather: no significant weather observed at this time

METAR text: LBSF 231100Z 12007KT 080V170 9999 FEW069 30/15 Q1016 NOSIG
Conditions at: LBSF (SOFIA , BG) observed 1100 UTC 23 June 2019
Temperature: 30.0°C (86°F)
Dewpoint: 15.0°C (59°F) [RH = 40%]
Pressure (altimeter): 30.00 inches Hg (1016.0 mb)
Winds: from the ESE (120 degrees) at 8 MPH (7 knots; 3.6 m/s)
Visibility: 6 or more miles (10+ km)
Ceiling: at least 12,000 feet AGL
Clouds: few clouds at 6900 feet AGL
Weather: no significant weather observed at this time

METAR text: LBSF 231030Z 13008KT 080V160 9999 FEW069 30/17 Q1016 NOSIG
Conditions at: LBSF (SOFIA , BG) observed 1030 UTC 23 June 2019
Temperature: 30.0°C (86°F)
Dewpoint: 17.0°C (63°F) [RH = 46%]
Pressure (altimeter): 30.00 inches Hg (1016.0 mb)
Winds: from the SE (130 degrees) at 9 MPH (8 knots; 4.1 m/s)
Visibility: 6 or more miles (10+ km)
Ceiling: at least 12,000 feet AGL
Clouds: few clouds at 6900 feet AGL
Weather: no significant weather observed at this time

METAR text: LBSF 231000Z 10007KT 050V150 CAVOK 30/17 Q1016 NOSIG
Conditions at: LBSF (SOFIA , BG) observed 1000 UTC 23 June 2019
Temperature: 30.0°C (86°F)
Dewpoint: 17.0°C (63°F) [RH = 46%]
Pressure (altimeter): 30.00 inches Hg (1016.0 mb)
Winds: from the E (100 degrees) at 8 MPH (7 knots; 3.6 m/s)
Visibility: 6 or more miles (10+ km)
Ceiling: ceiling and visibility are OK
Clouds: unknown
Weather: no significant weather observed at this time

METAR text: LBSF 230930Z 13006KT 060V170 CAVOK 28/17 Q1016 NOSIG
Conditions at: LBSF (SOFIA , BG) observed 0930 UTC 23 June 2019
Temperature: 28.0°C (82°F)
Dewpoint: 17.0°C (63°F) [RH = 51%]
Pressure (altimeter): 30.00 inches Hg (1016.0 mb)
Winds: from the SE (130 degrees) at 7 MPH (6 knots; 3.1 m/s)
Visibility: 6 or more miles (10+ km)
Ceiling: ceiling and visibility are OK
Clouds: unknown
Weather: no significant weather observed at this time

METAR text: LBSF 230900Z 15003KT 080V220 CAVOK 26/18 Q1016 NOSIG
Conditions at: LBSF (SOFIA , BG) observed 0900 UTC 23 June 2019
Temperature: 26.0°C (79°F)
Dewpoint: 18.0°C (64°F) [RH = 61%]
Pressure (altimeter): 30.00 inches Hg (1016.0 mb)
Winds: from the SSE (150 degrees) at 3 MPH (3 knots; 1.5 m/s)
Visibility: 6 or more miles (10+ km)
Ceiling: ceiling and visibility are OK
Clouds: unknown
Weather: no significant weather observed at this time

METAR text: LBSF 230830Z 12005KT 080V170 CAVOK 25/17 Q1017 NOSIG
Conditions at: LBSF (SOFIA , BG) observed 0830 UTC 23 June 2019
Temperature: 25.0°C (77°F)
Dewpoint: 17.0°C (63°F) [RH = 61%]
Pressure (altimeter): 30.03 inches Hg (1017.0 mb)
Winds: from the ESE (120 degrees) at 6 MPH (5 knots; 2.6 m/s)
Visibility: 6 or more miles (10+ km)
Ceiling: ceiling and visibility are OK
Clouds: unknown
Weather: no significant weather observed at this time

METAR text: LBSF 230800Z 12005KT 070V150 CAVOK 24/16 Q1017 NOSIG
Conditions at: LBSF (SOFIA , BG) observed 0800 UTC 23 June 2019
Temperature: 24.0°C (75°F)
Dewpoint: 16.0°C (61°F) [RH = 61%]
Pressure (altimeter): 30.03 inches Hg (1017.0 mb)
Winds: from the ESE (120 degrees) at 6 MPH (5 knots; 2.6 m/s)
Visibility: 6 or more miles (10+ km)
Ceiling: ceiling and visibility are OK
Clouds: unknown
Weather: no significant weather observed at this time

METAR text: LBSF 230730Z VRB03KT CAVOK 24/15 Q1017 NOSIG
Conditions at: LBSF (SOFIA , BG) observed 0730 UTC 23 June 2019
Temperature: 24.0°C (75°F)
Dewpoint: 15.0°C (59°F) [RH = 57%]
Pressure (altimeter): 30.03 inches Hg (1017.0 mb)
Winds: variable direction winds at 3 MPH (3 knots; 1.5 m/s)
Visibility: 6 or more miles (10+ km)
Ceiling: ceiling and visibility are OK
Clouds: unknown
Weather: no significant weather observed at this time

METAR text: LBSF 230700Z VRB02KT CAVOK 22/15 Q1017 NOSIG
Conditions at: LBSF (SOFIA , BG) observed 0700 UTC 23 June 2019
Temperature: 22.0°C (72°F)
Dewpoint: 15.0°C (59°F) [RH = 65%]
Pressure (altimeter): 30.03 inches Hg (1017.0 mb)
Winds: variable direction winds at 2 MPH (2 knots; 1.0 m/s)
Visibility: 6 or more miles (10+ km)
Ceiling: ceiling and visibility are OK
Clouds: unknown
Weather: no significant weather observed at this time

METAR text: LBSF 230630Z 00000KT CAVOK 21/15 Q1018 NOSIG
Conditions at: LBSF (SOFIA , BG) observed 0630 UTC 23 June 2019
Temperature: 21.0°C (70°F)
Dewpoint: 15.0°C (59°F) [RH = 69%]
Pressure (altimeter): 30.06 inches Hg (1018.0 mb)
Winds: calm
Visibility: 6 or more miles (10+ km)
Ceiling: ceiling and visibility are OK
Clouds: unknown
Weather: no significant weather observed at this time

METAR text: LBSF 230600Z 07003KT 010V120 CAVOK 20/15 Q1018 NOSIG
Conditions at: LBSF (SOFIA , BG) observed 0600 UTC 23 June 2019
Temperature: 20.0°C (68°F)
Dewpoint: 15.0°C (59°F) [RH = 73%]
Pressure (altimeter): 30.06 inches Hg (1018.0 mb)
Winds: from the ENE (70 degrees) at 3 MPH (3 knots; 1.5 m/s)
Visibility: 6 or more miles (10+ km)
Ceiling: ceiling and visibility are OK
Clouds: unknown
Weather: no significant weather observed at this time

METAR text: LBSF 230530Z 03003KT 350V070 CAVOK 20/15 Q1018 NOSIG
Conditions at: LBSF (SOFIA , BG) observed 0530 UTC 23 June 2019
Temperature: 20.0°C (68°F)
Dewpoint: 15.0°C (59°F) [RH = 73%]
Pressure (altimeter): 30.06 inches Hg (1018.0 mb)
Winds: from the NNE (30 degrees) at 3 MPH (3 knots; 1.5 m/s)
Visibility: 6 or more miles (10+ km)
Ceiling: ceiling and visibility are OK
Clouds: unknown
Weather: no significant weather observed at this time

Forecast for: LBSF (SOFIA , BG)
Text: TAF LBSF 241700Z 2418/2518 VRB04KT 9999 SCT015 BKN040
Forecast period: 1800 to 2300 UTC 24 June 2019
Forecast type: FROM: standard forecast or significant change
Winds: variable direction winds at 5 MPH (4 knots; 2.1 m/s)
Visibility: 6 or more miles 10+ km)
Ceiling: 4000 feet AGL
Clouds: scattered clouds at 1500 feet AGL
broken clouds at 4000 feet AGL
Weather: no significant weather forecast for this period
Text: PROB40
Forecast period: 1800 to 1900 UTC 24 June 2019
Forecast type: TEMPORARY: The following changes expected for less than half the time period
Visibility: 3 miles (5 km)
Ceiling: 4000 feet AGL
Clouds: few clouds at 3000 feet AGL
broken clouds at 4000 feet AGL
Weather: TSRA  (rain associated with thunderstorm(s))
Text: TEMPO 2418/2419 5000 TSRA FEW030CB BKN040
Forecast period: 2300 UTC 24 June 2019 to 0700 UTC 25 June 2019
Forecast type: BECOMING: Conditions expected to become as follows by 0100 UTC 25 June 2019
Winds: variable direction winds at 5 MPH (4 knots; 2.1 m/s)
Visibility: 2.49 miles (4.01 km)
Ceiling: 2000 feet AGL
Clouds: scattered clouds at 900 feet AGL
broken clouds at 2000 feet AGL
Weather: BR  (mist)
Text: BECMG 2423/2501 4000 BR SCT009 BKN020
Forecast period: 0100 to 0500 UTC 25 June 2019
Forecast type: PROBABLE: 40 percent likelihood of the following during this time
Visibility: 0.31 miles (0.50 km)
Ceiling: 500 feet AGL
Clouds: broken clouds at 500 feet AGL
Weather: FG  (fog)
Text: PROB40 2501/2505 0500 FG BKN005
Forecast period: 0700 to 1800 UTC 25 June 2019
Forecast type: BECOMING: Conditions expected to become as follows by 0800 UTC 25 June 2019
Winds: variable direction winds at 5 MPH (4 knots; 2.1 m/s)
Visibility: 6 or more miles 10+ km)
Ceiling: 5000 feet AGL
Clouds: scattered clouds at 2500 feet AGL
broken clouds at 5000 feet AGL
Weather: BR  (mist)
Text: BECMG 2507/2508 9999 SCT025 BKN050
Forecast period: 1000 to 1800 UTC 25 June 2019
Forecast type: TEMPORARY: The following changes expected for less than half the time period
Visibility: 1.86 miles (2.99 km)
Ceiling: 4000 feet AGL
Clouds: scattered clouds at 1500 feet AGL
scattered clouds at 3000 feet AGL
broken clouds at 4000 feet AGL
Weather: TSRA  (rain associated with thunderstorm(s))